Time;durP1;ratioP1;P1;durP2;ratioP2;P2;SDS_P1;SDS_P2;PMS_P1;PMS_P2;Temp;Humidity;BMP_temperature;BMP_pressure;BME280_temperature;BME280_humidity;BME280_pressure;Samples;Min_cycle;Max_cycle;Signal;HPM_P1;HPM_P2
2022/05/17 00:00:00;;;;;;;4.32;2.60;;;14.90;99.90;;;;;;5062622;28;20052;-81
2022/05/17 00:02:25;;;;;;;6.68;2.97;;;14.90;99.90;;;;;;5060002;28;20052;-82
2022/05/17 00:04:51;;;;;;;2.70;2.50;;;14.90;99.90;;;;;;5060820;28;20028;-83
2022/05/17 00:07:17;;;;;;;4.30;3.10;;;14.80;99.90;;;;;;5042166;28;20056;-83
2022/05/17 00:09:43;;;;;;;4.60;3.20;;;14.80;99.90;;;;;;5060621;28;20032;-83
2022/05/17 00:12:10;;;;;;;3.83;3.00;;;14.80;99.90;;;;;;5060555;28;20017;-81
2022/05/17 00:14:35;;;;;;;2.63;2.42;;;14.80;99.90;;;;;;5043939;28;20025;-82
2022/05/17 00:17:02;;;;;;;4.93;3.38;;;14.80;99.90;;;;;;5060283;28;20389;-79
2022/05/17 00:19:29;;;;;;;4.90;3.20;;;14.80;99.90;;;;;;5040958;28;20035;-83
2022/05/17 00:21:55;;;;;;;2.83;2.55;;;14.80;99.90;;;;;;5061750;28;20067;-82
2022/05/17 00:24:22;;;;;;;4.38;3.28;;;14.80;99.90;;;;;;5062676;28;20067;-82
2022/05/17 00:26:48;;;;;;;4.43;3.13;;;14.80;99.90;;;;;;5044867;28;20021;-82
2022/05/17 00:29:14;;;;;;;5.60;3.63;;;14.70;99.90;;;;;;5066140;28;20013;-80
2022/05/17 00:31:40;;;;;;;3.30;2.88;;;14.70;99.90;;;;;;5076050;28;20100;-82
2022/05/17 00:34:06;;;;;;;3.08;2.75;;;14.80;99.90;;;;;;5038438;28;20053;-81
2022/05/17 00:36:33;;;;;;;4.20;2.97;;;14.80;99.90;;;;;;5040058;28;20025;-82
2022/05/17 00:39:00;;;;;;;3.28;3.03;;;14.80;99.90;;;;;;5039488;28;20052;-82
2022/05/17 00:41:26;;;;;;;4.70;2.83;;;14.80;99.90;;;;;;5039991;28;20029;-83
2022/05/17 00:46:56;;;;;;;6.85;3.42;;;14.90;99.90;;;;;;5059538;28;20039;-82
2022/05/17 00:49:40;;;;;;;6.72;3.30;;;14.90;99.90;;;;;;5058151;28;20057;-81
2022/05/17 00:52:12;;;;;;;3.88;2.90;;;14.80;99.90;;;;;;5058980;28;20021;-83
2022/05/17 00:54:41;;;;;;;7.47;3.65;;;14.80;99.90;;;;;;5059408;28;20020;-82
2022/05/17 00:57:40;;;;;;;5.47;3.20;;;14.80;99.90;;;;;;5060335;28;20017;-80
2022/05/17 01:00:12;;;;;;;6.63;3.13;;;14.80;99.90;;;;;;5043178;28;20107;-83
2022/05/17 01:02:59;;;;;;;7.90;3.75;;;14.80;99.90;;;;;;5058135;28;20365;-82
2022/05/17 01:05:26;;;;;;;5.88;3.80;;;14.90;99.90;;;;;;5039981;28;20033;-82
2022/05/17 01:07:55;;;;;;;4.25;3.58;;;14.90;99.90;;;;;;5058613;28;20067;-82
2022/05/17 01:10:22;;;;;;;5.28;3.67;;;14.90;99.90;;;;;;5058875;28;20067;-81
2022/05/17 01:14:57;;;;;;;6.68;3.50;;;15.00;99.90;;;;;;5058505;28;20025;-82
2022/05/17 01:15:34;;;;;;;5.32;3.60;;;15.00;99.90;;;;;;5059070;28;20562;-81
2022/05/17 01:18:02;;;;;;;4.28;3.63;;;15.00;99.90;;;;;;5059336;28;20024;-81
2022/05/17 01:20:28;;;;;;;3.90;3.50;;;15.00;99.90;;;;;;5065719;28;20025;-81
2022/05/17 01:22:53;;;;;;;3.95;3.20;;;15.00;99.90;;;;;;5071353;28;20031;-80
2022/05/17 01:25:19;;;;;;;4.93;3.90;;;15.10;99.90;;;;;;5042844;28;20056;-83
2022/05/17 01:28:16;;;;;;;3.78;3.33;;;15.10;99.90;;;;;;5058757;28;20029;-83
2022/05/17 01:30:42;;;;;;;9.60;3.75;;;15.10;99.90;;;;;;5036741;28;20059;-82
2022/05/17 01:33:16;;;;;;;3.22;2.95;;;15.10;99.90;;;;;;5019783;28;1156827;-82
2022/05/17 01:35:42;;;;;;;5.53;3.33;;;15.10;99.90;;;;;;5062123;28;20021;-81
2022/05/17 01:38:09;;;;;;;5.10;3.80;;;15.10;99.90;;;;;;5059108;28;20052;-83
2022/05/17 01:40:35;;;;;;;5.35;3.50;;;15.10;99.90;;;;;;5041837;28;20021;-83
2022/05/17 01:43:01;;;;;;;3.25;2.95;;;15.10;99.90;;;;;;5060069;28;20059;-83
2022/05/17 01:45:27;;;;;;;4.72;3.33;;;15.20;99.90;;;;;;5059967;28;20025;-83
2022/05/17 01:47:53;;;;;;;4.38;3.05;;;15.10;99.90;;;;;;5059813;28;20033;-81
2022/05/17 01:50:18;;;;;;;5.57;3.15;;;15.10;99.90;;;;;;5059924;28;20026;-82
2022/05/17 01:52:44;;;;;;;3.80;3.35;;;15.10;99.90;;;;;;5058231;28;20012;-81
2022/05/17 01:55:11;;;;;;;7.95;4.30;;;15.10;99.90;;;;;;5058752;28;20084;-81
2022/05/17 01:57:37;;;;;;;4.72;3.40;;;15.20;99.90;;;;;;5060970;28;20029;-80
2022/05/17 02:00:10;;;;;;;7.15;3.58;;;15.10;99.90;;;;;;5040322;28;20033;-82
2022/05/17 02:02:36;;;;;;;5.05;3.13;;;15.10;99.90;;;;;;5061060;28;20025;-82
2022/05/17 02:05:03;;;;;;;4.35;2.85;;;15.10;99.90;;;;;;5071845;28;20028;-81
2022/05/17 02:07:28;;;;;;;5.10;3.13;;;15.10;99.90;;;;;;5072044;28;20036;-80
2022/05/17 02:09:54;;;;;;;5.50;3.40;;;15.10;99.90;;;;;;5067597;28;20013;-83
2022/05/17 02:12:20;;;;;;;3.08;2.78;;;15.10;99.90;;;;;;5060108;28;20060;-82
2022/05/17 02:14:46;;;;;;;4.85;3.38;;;15.10;99.90;;;;;;5062220;28;20020;-81
2022/05/17 02:17:11;;;;;;;6.90;3.20;;;15.10;99.90;;;;;;5045115;28;20057;-82
2022/05/17 02:19:37;;;;;;;4.20;3.25;;;15.10;99.90;;;;;;5062768;28;20032;-82
2022/05/17 02:22:04;;;;;;;3.97;2.97;;;15.10;99.90;;;;;;5063039;28;20071;-81
2022/05/17 02:24:30;;;;;;;3.70;3.30;;;15.10;99.90;;;;;;5062128;28;20039;-83
2022/05/17 02:26:56;;;;;;;5.97;2.95;;;15.10;99.90;;;;;;5062567;28;20037;-82
2022/05/17 02:29:23;;;;;;;4.05;2.70;;;15.10;99.90;;;;;;5062106;28;20100;-82
2022/05/17 02:31:50;;;;;;;3.47;2.60;;;15.10;99.90;;;;;;5044971;28;20044;-83
2022/05/17 02:34:16;;;;;;;6.72;3.22;;;15.10;99.90;;;;;;5063434;28;20037;-83
2022/05/17 02:36:42;;;;;;;3.45;2.53;;;15.10;99.90;;;;;;5062125;28;20080;-82
2022/05/17 02:39:08;;;;;;;8.65;2.83;;;15.10;99.90;;;;;;5062282;28;20037;-82
2022/05/17 02:41:34;;;;;;;3.88;3.13;;;15.10;99.90;;;;;;5045893;28;20032;-81
2022/05/17 02:44:00;;;;;;;6.32;3.53;;;15.10;99.90;;;;;;5062973;28;20025;-78
2022/05/17 02:46:29;;;;;;;3.45;3.15;;;15.10;99.90;;;;;;5075849;28;20025;-79
2022/05/17 02:48:55;;;;;;;6.85;3.63;;;15.00;99.90;;;;;;5077851;28;20016;-82
2022/05/17 02:51:21;;;;;;;3.53;2.80;;;15.00;99.90;;;;;;5076865;28;20052;-81
2022/05/17 02:53:47;;;;;;;7.45;3.67;;;15.10;99.90;;;;;;5075792;28;20035;-80
2022/05/17 02:56:13;;;;;;;5.00;3.50;;;15.00;99.90;;;;;;5069070;28;20385;-83
2022/05/17 02:58:39;;;;;;;3.90;2.63;;;15.00;99.90;;;;;;5061237;28;20055;-83
2022/05/17 03:01:06;;;;;;;4.00;2.85;;;15.00;99.90;;;;;;5057727;28;20490;-83
2022/05/17 03:03:35;;;;;;;4.53;3.10;;;15.00;99.90;;;;;;5064151;28;20021;-83
2022/05/17 03:06:01;;;;;;;6.55;3.15;;;14.90;99.90;;;;;;5062551;28;20062;-81
2022/05/17 03:08:27;;;;;;;3.95;2.47;;;14.90;99.90;;;;;;5062635;28;20029;-82
2022/05/17 03:10:52;;;;;;;4.22;2.75;;;14.90;99.90;;;;;;5061602;28;20040;-83
2022/05/17 03:13:18;;;;;;;6.07;3.13;;;14.90;99.90;;;;;;5043678;28;20123;-81
2022/05/17 03:15:44;;;;;;;3.53;2.85;;;14.80;99.90;;;;;;5061246;28;20401;-83
2022/05/17 03:18:10;;;;;;;5.63;4.22;;;14.80;99.90;;;;;;5061862;28;20021;-84
2022/05/17 03:20:35;;;;;;;2.53;2.33;;;14.80;99.90;;;;;;5061381;28;20057;-83
2022/05/17 03:23:01;;;;;;;5.45;2.70;;;14.80;99.90;;;;;;5055758;28;20032;-83
2022/05/17 03:25:27;;;;;;;5.75;2.58;;;14.80;99.90;;;;;;5040105;28;20061;-81
2022/05/17 03:27:54;;;;;;;2.65;2.45;;;14.70;99.90;;;;;;5042877;28;20512;-82
2022/05/17 03:30:20;;;;;;;6.65;3.22;;;14.70;99.90;;;;;;5042103;28;20124;-82
2022/05/17 03:32:46;;;;;;;4.10;2.95;;;14.60;99.90;;;;;;5042247;28;20116;-80
2022/05/17 03:35:12;;;;;;;7.40;3.28;;;14.60;99.90;;;;;;5061567;28;20082;-81
2022/05/17 03:37:38;;;;;;;3.70;2.85;;;14.50;99.90;;;;;;5060775;28;20044;-81
2022/05/17 03:40:07;;;;;;;3.53;2.65;;;14.60;99.90;;;;;;5062911;28;20037;-81
2022/05/17 03:42:33;;;;;;;4.82;2.92;;;14.50;99.90;;;;;;5064138;28;20021;-81
2022/05/17 03:44:59;;;;;;;3.67;3.08;;;14.50;99.90;;;;;;5061397;28;20029;-80
2022/05/17 03:47:25;;;;;;;5.15;3.55;;;14.50;99.90;;;;;;5061383;28;20044;-81
2022/05/17 03:49:51;;;;;;;6.07;3.17;;;14.50;99.90;;;;;;5045177;28;20104;-81
2022/05/17 03:52:17;;;;;;;5.68;2.92;;;14.50;99.90;;;;;;5062468;28;20091;-81
2022/05/17 03:54:42;;;;;;;3.70;3.00;;;14.50;99.90;;;;;;5049276;28;20029;-82
2022/05/17 03:57:08;;;;;;;3.25;2.90;;;14.50;99.90;;;;;;5071548;28;20033;-82
2022/05/17 03:59:35;;;;;;;3.33;2.90;;;14.50;99.90;;;;;;5046539;28;20418;-83
2022/05/17 04:02:01;;;;;;;5.15;3.50;;;14.50;99.90;;;;;;5065837;28;20048;-82
2022/05/17 04:04:27;;;;;;;4.90;3.67;;;14.50;99.90;;;;;;5062554;28;20029;-83
2022/05/17 04:06:52;;;;;;;5.20;3.17;;;14.60;99.90;;;;;;5066382;28;20033;-82
2022/05/17 04:09:18;;;;;;;5.05;3.28;;;14.50;99.90;;;;;;5073452;28;20033;-81
2022/05/17 04:11:44;;;;;;;3.83;3.00;;;14.60;99.90;;;;;;5073289;28;20040;-82
2022/05/17 04:14:09;;;;;;;4.82;3.40;;;14.50;99.90;;;;;;5065405;28;20056;-82
2022/05/17 04:16:37;;;;;;;7.47;3.95;;;14.60;99.90;;;;;;5059148;28;20079;-81
2022/05/17 04:19:04;;;;;;;4.97;2.90;;;14.60;99.90;;;;;;5042057;28;20074;-83
2022/05/17 04:21:31;;;;;;;7.45;3.47;;;14.60;99.90;;;;;;5059164;28;20021;-83
2022/05/17 04:23:57;;;;;;;6.25;3.13;;;14.60;99.90;;;;;;5054279;28;20500;-81
2022/05/17 04:26:23;;;;;;;3.95;2.95;;;14.70;99.90;;;;;;5060582;28;20037;-82
2022/05/17 04:28:50;;;;;;;3.78;3.08;;;14.70;99.90;;;;;;5063374;28;20090;-82
2022/05/17 04:31:16;;;;;;;5.82;3.47;;;14.70;99.90;;;;;;5060305;28;20032;-82
2022/05/17 04:33:42;;;;;;;5.00;3.30;;;14.80;99.90;;;;;;5060658;28;20037;-82
2022/05/17 04:36:08;;;;;;;4.75;3.03;;;14.80;99.90;;;;;;5060184;28;20025;-82
2022/05/17 04:38:34;;;;;;;2.90;2.60;;;14.90;99.90;;;;;;5041216;28;20442;-82
2022/05/17 04:41:00;;;;;;;3.78;2.75;;;15.00;99.90;;;;;;5058422;28;20051;-82
2022/05/17 04:43:26;;;;;;;4.78;2.72;;;15.00;99.90;;;;;;5059480;28;20033;-82
2022/05/17 04:45:54;;;;;;;4.03;2.88;;;15.20;99.90;;;;;;5058781;28;20108;-82
2022/05/17 04:48:20;;;;;;;6.00;2.85;;;15.30;99.90;;;;;;5059332;28;20033;-81
2022/05/17 04:50:45;;;;;;;7.07;3.55;;;15.50;99.90;;;;;;5059508;28;20355;-80
2022/05/17 04:53:11;;;;;;;6.07;3.00;;;15.60;99.90;;;;;;5058841;28;20035;-81
2022/05/17 04:55:37;;;;;;;6.40;3.75;;;15.70;99.90;;;;;;5059047;28;20025;-80
2022/05/17 04:58:03;;;;;;;4.63;2.90;;;15.70;99.90;;;;;;5062429;28;20074;-79
2022/05/17 05:00:29;;;;;;;6.65;3.45;;;15.80;99.90;;;;;;5058071;28;20028;-80
2022/05/17 05:02:55;;;;;;;7.57;2.97;;;15.90;99.90;;;;;;5058233;28;20036;-81
2022/05/17 05:05:22;;;;;;;4.35;3.05;;;16.00;99.90;;;;;;5058095;28;20017;-81
2022/05/17 05:07:48;;;;;;;4.90;3.25;;;16.00;99.90;;;;;;5047286;28;20039;-81
2022/05/17 05:10:14;;;;;;;5.38;3.30;;;16.10;99.90;;;;;;5058271;28;20028;-81
2022/05/17 05:12:41;;;;;;;3.88;2.75;;;16.20;99.90;;;;;;5057539;28;20066;-81
2022/05/17 05:15:07;;;;;;;6.97;3.85;;;16.30;99.90;;;;;;5039432;28;20025;-81
2022/05/17 05:17:35;;;;;;;4.50;2.80;;;16.30;99.90;;;;;;5046989;28;20096;-81
2022/05/17 05:20:02;;;;;;;8.52;3.22;;;16.40;99.90;;;;;;5074175;28;20523;-81
2022/05/17 05:22:31;;;;;;;5.00;3.25;;;16.40;99.90;;;;;;5057987;28;20021;-81
2022/05/17 05:24:57;;;;;;;5.78;3.17;;;16.40;99.90;;;;;;5059214;28;20021;-82
2022/05/17 05:27:22;;;;;;;4.28;2.53;;;16.30;99.90;;;;;;5059663;28;20044;-81
2022/05/17 05:29:48;;;;;;;6.75;3.40;;;16.40;99.90;;;;;;5058847;28;20017;-81
2022/05/17 05:32:14;;;;;;;3.05;2.78;;;16.40;99.90;;;;;;5060066;28;20474;-80
2022/05/17 05:34:40;;;;;;;4.90;2.97;;;16.40;99.90;;;;;;5040862;28;20039;-81
2022/05/17 05:37:05;;;;;;;4.03;2.92;;;16.50;99.90;;;;;;5058613;28;20021;-80
2022/05/17 05:39:31;;;;;;;5.00;3.00;;;16.50;99.90;;;;;;5058084;28;20017;-81
2022/05/17 05:41:57;;;;;;;4.65;3.15;;;16.60;99.90;;;;;;5058865;28;20025;-81
2022/05/17 05:44:23;;;;;;;5.85;3.53;;;16.60;99.90;;;;;;5058452;28;20087;-81
2022/05/17 05:46:49;;;;;;;4.40;3.25;;;16.60;99.90;;;;;;5041413;28;20029;-81
2022/05/17 05:49:14;;;;;;;5.03;2.80;;;16.60;99.90;;;;;;5062043;28;20102;-81
2022/05/17 05:51:40;;;;;;;6.85;3.55;;;16.80;99.90;;;;;;5072136;28;20079;-80
2022/05/17 05:54:07;;;;;;;6.40;3.15;;;17.10;99.90;;;;;;5079594;28;20088;-81
2022/05/17 05:56:32;;;;;;;7.25;3.90;;;18.20;99.20;;;;;;5063043;28;20024;-80
2022/05/17 05:58:58;;;;;;;4.68;3.13;;;18.80;96.30;;;;;;5062953;28;20088;-81
2022/05/17 06:01:26;;;;;;;4.10;2.65;;;20.40;95.70;;;;;;5061559;28;20163;-81
2022/05/17 06:03:52;;;;;;;7.45;3.03;;;23.40;91.30;;;;;;5061566;28;20025;-81
2022/05/17 06:06:18;;;;;;;4.82;2.53;;;26.30;78.20;;;;;;5062628;28;20066;-81
2022/05/17 06:08:44;;;;;;;7.55;2.67;;;28.30;68.70;;;;;;5061398;28;20393;-81
2022/05/17 06:11:10;;;;;;;6.38;2.15;;;29.60;60.40;;;;;;5063867;28;20099;-82
2022/05/17 06:13:36;;;;;;;2.17;1.63;;;29.20;58.10;;;;;;5062807;28;20033;-82
2022/05/17 06:16:02;;;;;;;3.42;2.10;;;28.60;57.50;;;;;;5064055;28;20017;-81
2022/05/17 06:18:28;;;;;;;4.10;2.63;;;26.90;58.50;;;;;;5042846;28;20029;-80
2022/05/17 06:20:56;;;;;;;7.30;2.85;;;25.90;61.50;;;;;;5063806;28;20027;-81
2022/05/17 06:23:23;;;;;;;6.57;3.30;;;24.60;63.30;;;;;;5062183;28;20005;-82
2022/05/17 06:25:49;;;;;;;6.13;2.88;;;23.00;68.00;;;;;;5063905;28;20025;-81
2022/05/17 06:28:15;;;;;;;7.32;3.50;;;21.60;73.10;;;;;;5063874;28;20029;-80
2022/05/17 06:30:41;;;;;;;4.43;3.13;;;20.80;78.60;;;;;;5061583;28;20413;-81
2022/05/17 06:33:12;;;;;;;5.10;2.60;;;22.90;78.00;;;;;;5047126;28;20466;-80
2022/05/17 06:35:39;;;;;;;4.95;2.55;;;25.20;70.80;;;;;;5065347;28;20028;-82
2022/05/17 06:38:05;;;;;;;4.60;2.97;;;27.40;63.70;;;;;;5052966;28;20617;-83
2022/05/17 06:40:32;;;;;;;5.95;3.25;;;29.10;59.20;;;;;;5067997;28;20032;-81
2022/05/17 06:42:58;;;;;;;6.00;3.65;;;30.40;55.60;;;;;;5051669;28;20025;-81
2022/05/17 06:45:24;;;;;;;8.02;3.38;;;31.50;51.40;;;;;;5077844;28;20009;-80
2022/05/17 06:47:49;;;;;;;6.82;3.22;;;31.30;50.60;;;;;;5096876;28;20066;-82
2022/05/17 06:50:15;;;;;;;6.68;3.88;;;31.30;50.50;;;;;;5093786;28;20025;-82
2022/05/17 06:52:57;;;;;;;12.18;4.40;;;31.10;50.20;;;;;;5079876;28;20013;-80
2022/05/17 06:55:23;;;;;;;5.88;3.50;;;31.10;50.10;;;;;;5061830;28;20085;-81
2022/05/17 06:57:50;;;;;;;9.63;3.80;;;30.90;50.50;;;;;;5075959;28;20013;-81
2022/05/17 07:00:19;;;;;;;3.70;2.75;;;31.20;50.10;;;;;;5072158;28;20416;-83
2022/05/17 07:02:45;;;;;;;5.93;2.95;;;31.70;49.60;;;;;;5051234;28;20017;-84
2022/05/17 07:05:11;;;;;;;4.75;3.40;;;31.80;49.20;;;;;;5076565;28;20017;-84
2022/05/17 07:07:37;;;;;;;4.88;3.60;;;31.30;48.30;;;;;;5082061;28;20029;-82
2022/05/17 07:15:35;;;;;;;11.00;5.93;;;23.60;62.70;;;;;;5075528;28;20043;-82
2022/05/17 07:18:00;;;;;;;8.15;5.07;;;22.10;66.90;;;;;;5074853;28;20025;-82
2022/05/17 07:20:29;;;;;;;8.38;4.00;;;21.20;70.70;;;;;;5071809;28;20093;-81
2022/05/17 07:22:55;;;;;;;6.60;4.00;;;20.70;73.80;;;;;;5074437;28;20021;-80
2022/05/17 07:25:21;;;;;;;10.90;5.13;;;20.50;75.90;;;;;;5088652;28;20051;-80
2022/05/17 07:27:47;;;;;;;10.63;4.90;;;20.50;76.20;;;;;;5089083;28;20024;-82
2022/05/17 07:30:13;;;;;;;6.45;4.13;;;20.40;77.00;;;;;;5062059;28;20052;-82
2022/05/17 07:32:39;;;;;;;5.97;3.95;;;20.30;78.40;;;;;;5048143;28;20473;-85
2022/05/17 07:35:07;;;;;;;7.20;4.43;;;20.20;79.80;;;;;;5066419;28;20133;-84
2022/05/17 07:37:33;;;;;;;10.43;5.75;;;20.20;80.20;;;;;;5064097;28;20104;-83
2022/05/17 07:39:59;;;;;;;6.07;4.85;;;20.10;80.40;;;;;;5065291;28;20074;-84
2022/05/17 07:42:26;;;;;;;8.38;5.10;;;20.10;81.70;;;;;;5052448;28;20056;-83
2022/05/17 07:44:51;;;;;;;10.57;5.25;;;20.20;82.30;;;;;;5084208;28;20024;-81
2022/05/17 07:47:18;;;;;;;5.93;4.07;;;20.50;80.10;;;;;;5084256;28;20025;-84
2022/05/17 07:49:44;;;;;;;10.90;4.85;;;20.70;80.00;;;;;;5082503;28;20020;-84
2022/05/17 07:52:11;;;;;;;6.60;3.92;;;21.00;78.60;;;;;;5048580;28;20032;-84
2022/05/17 07:54:37;;;;;;;12.07;5.18;;;20.90;79.00;;;;;;5064682;28;20021;-84
2022/05/17 07:57:04;;;;;;;5.45;3.92;;;20.80;78.00;;;;;;5064929;28;20024;-83
2022/05/17 07:59:30;;;;;;;13.18;5.18;;;20.90;79.20;;;;;;5063894;28;20051;-84
2022/05/17 08:01:56;;;;;;;6.85;4.13;;;21.10;78.10;;;;;;5047046;28;20032;-84
2022/05/17 08:04:23;;;;;;;9.07;5.45;;;21.10;78.10;;;;;;5071997;28;20028;-84
2022/05/17 08:06:49;;;;;;;7.43;5.15;;;21.00;76.70;;;;;;5083804;28;20154;-83
2022/05/17 08:09:16;;;;;;;6.88;4.30;;;20.80;78.10;;;;;;5083131;28;20028;-83
2022/05/17 08:11:41;;;;;;;6.75;3.97;;;20.80;78.70;;;;;;5084717;28;20028;-81
2022/05/17 08:14:08;;;;;;;5.75;4.22;;;21.00;78.90;;;;;;5072954;28;20032;-81
2022/05/17 08:16:34;;;;;;;4.57;3.58;;;21.20;77.30;;;;;;5055837;28;20523;-81
2022/05/17 08:19:00;;;;;;;7.40;3.65;;;21.30;76.60;;;;;;5072552;28;20041;-83
2022/05/17 08:21:26;;;;;;;7.18;4.25;;;21.60;75.70;;;;;;5072674;28;20089;-82
2022/05/17 08:23:52;;;;;;;7.20;4.05;;;22.00;74.20;;;;;;5082410;28;20069;-81
2022/05/17 08:29:02;;;;;;;9.70;4.55;;;22.00;74.00;;;;;;5090917;28;20056;-79
2022/05/17 08:31:28;;;;;;;9.98;3.70;;;22.00;73.10;;;;;;5091857;28;20025;-80
2022/05/17 08:33:54;;;;;;;5.88;3.88;;;21.60;74.20;;;;;;5072381;28;20084;-80
2022/05/17 08:36:34;;;;;;;7.50;4.30;;;21.20;73.80;;;;;;5048538;28;20116;-82
2022/05/17 08:39:00;;;;;;;7.95;3.15;;;21.10;75.00;;;;;;5045784;28;20025;-80
2022/05/17 08:41:41;;;;;;;5.70;3.58;;;21.40;76.00;;;;;;5045697;28;20009;-79
2022/05/17 08:44:13;;;;;;;5.05;3.25;;;22.10;72.60;;;;;;5065651;28;20017;-82
2022/05/17 08:47:00;;;;;;;7.55;3.97;;;22.10;72.00;;;;;;5078599;28;20059;-80
2022/05/17 08:49:31;;;;;;;6.55;3.78;;;21.60;70.00;;;;;;5069118;28;20111;-80
2022/05/17 08:51:59;;;;;;;7.93;3.92;;;21.10;72.10;;;;;;5065063;28;20028;-79
2022/05/17 08:54:30;;;;;;;7.20;3.55;;;20.90;74.00;;;;;;5067733;28;20029;-81
2022/05/17 08:57:05;;;;;;;3.03;2.72;;;21.10;74.10;;;;;;5053265;28;20020;-81
2022/05/17 08:59:34;;;;;;;7.75;3.45;;;21.80;73.60;;;;;;5070086;28;20033;-82
2022/05/17 09:02:09;;;;;;;6.97;3.72;;;22.50;70.00;;;;;;5083584;28;20035;-80
2022/05/17 09:04:52;;;;;;;6.22;2.97;;;22.60;69.30;;;;;;5086902;28;20016;-82
2022/05/17 09:07:22;;;;;;;3.80;2.40;;;22.70;67.70;;;;;;5086260;28;20021;-80
2022/05/17 09:10:01;;;;;;;5.35;3.03;;;22.70;67.20;;;;;;5082513;28;20019;-80
2022/05/17 09:12:38;;;;;;;6.05;3.58;;;22.60;66.20;;;;;;5084573;28;20150;-80
2022/05/17 09:15:05;;;;;;;6.07;2.38;;;22.50;66.50;;;;;;5083860;28;20028;-81
2022/05/17 09:17:35;;;;;;;4.50;2.92;;;22.30;66.20;;;;;;5065352;28;20028;-79
2022/05/17 09:20:03;;;;;;;5.25;2.67;;;22.10;65.50;;;;;;5068988;28;20017;-80
2022/05/17 09:22:29;;;;;;;6.35;3.47;;;21.90;65.80;;;;;;5064458;28;20021;-80
2022/05/17 09:25:02;;;;;;;6.68;3.30;;;21.90;66.10;;;;;;5064608;28;20064;-81
2022/05/17 09:27:39;;;;;;;6.13;2.80;;;22.10;64.90;;;;;;5063510;28;20030;-82
2022/05/17 09:30:23;;;;;;;6.57;3.00;;;22.50;65.00;;;;;;5063297;28;20021;-82
2022/05/17 09:33:06;;;;;;;5.78;3.10;;;22.70;63.30;;;;;;5061088;28;20036;-80
2022/05/17 09:35:42;;;;;;;4.57;3.08;;;22.80;62.80;;;;;;5062668;28;20044;-80
2022/05/17 09:38:09;;;;;;;7.50;3.22;;;22.50;61.90;;;;;;5045156;28;20021;-82
2022/05/17 09:40:40;;;;;;;7.00;3.05;;;22.20;62.20;;;;;;5047060;28;20025;-80
2022/05/17 09:43:12;;;;;;;5.88;2.72;;;22.30;63.60;;;;;;5066930;28;20029;-80
2022/05/17 09:45:49;;;;;;;5.50;3.08;;;22.80;62.90;;;;;;5070172;28;20076;-79
2022/05/17 09:48:31;;;;;;;7.38;3.10;;;23.20;62.30;;;;;;5050896;28;20021;-83
2022/05/17 09:53:46;;;;;;;7.10;3.20;;;23.80;59.30;;;;;;5053099;23;20060;-85
2022/05/17 09:56:13;;;;;;;5.78;2.72;;;23.90;58.90;;;;;;5039802;28;20401;-85
2022/05/17 09:58:44;;;;;;;5.05;2.55;;;24.20;57.90;;;;;;5040573;28;20026;-85
2022/05/17 10:01:15;;;;;;;6.07;2.63;;;24.50;56.70;;;;;;5046084;28;20025;-84
2022/05/17 10:03:43;;;;;;;4.55;2.72;;;24.70;56.60;;;;;;5022961;28;20030;-85
2022/05/17 10:06:19;;;;;;;5.03;2.65;;;24.80;56.20;;;;;;5003083;28;20113;-85
2022/05/17 10:09:10;;;;;;;2.97;2.20;;;24.90;54.60;;;;;;5019564;28;20049;-85
2022/05/17 10:11:52;;;;;;;3.30;1.92;;;24.90;53.10;;;;;;5008840;28;20026;-86
2022/05/17 10:14:36;;;;;;;3.05;2.15;;;24.80;53.10;;;;;;5002043;28;20029;-86
2022/05/17 10:17:20;;;;;;;5.82;2.13;;;24.60;53.40;;;;;;5002011;28;20030;-86
2022/05/17 10:19:51;;;;;;;3.30;2.40;;;24.30;54.10;;;;;;5020513;28;20337;-85
2022/05/17 10:22:44;;;;;;;2.83;2.23;;;23.90;55.50;;;;;;5005293;28;20037;-85
2022/05/17 10:25:31;;;;;;;4.88;2.92;;;24.00;56.40;;;;;;5013347;28;20117;-85
2022/05/17 10:28:07;;;;;;;3.65;2.50;;;24.30;56.50;;;;;;5009703;28;20041;-85
2022/05/17 10:30:48;;;;;;;5.05;2.42;;;24.30;55.80;;;;;;5019607;28;20030;-85
2022/05/17 10:33:30;;;;;;;5.00;2.00;;;24.50;55.50;;;;;;5018209;28;20458;-84
2022/05/17 10:36:10;;;;;;;4.05;2.20;;;24.50;56.20;;;;;;5021535;28;20785;-87
2022/05/17 10:38:47;;;;;;;6.57;3.20;;;24.10;57.10;;;;;;5022872;28;20041;-85
2022/05/17 10:41:13;;;;;;;7.75;2.85;;;23.60;57.80;;;;;;5024850;28;20502;-87
2022/05/17 10:43:42;;;;;;;3.92;2.67;;;23.40;58.90;;;;;;5023884;28;20034;-86
2022/05/17 10:46:29;;;;;;;2.90;2.60;;;23.50;57.80;;;;;;5023347;28;20026;-86
2022/05/17 10:49:26;;;;;;;4.85;2.55;;;23.40;58.30;;;;;;5016084;28;20030;-85
2022/05/17 10:52:03;;;;;;;4.47;3.17;;;23.10;59.20;;;;;;5021020;28;20082;-87
2022/05/17 10:54:42;;;;;;;4.55;3.63;;;23.20;60.30;;;;;;5039046;28;20014;-87
2022/05/17 10:57:27;;;;;;;5.50;3.00;;;23.90;59.20;;;;;;5036662;28;20061;-87
2022/05/17 11:00:09;;;;;;;3.80;2.47;;;24.60;56.30;;;;;;5038012;28;20017;-87
2022/05/17 11:02:54;;;;;;;;;;;24.90;51.70;;;;;;5035534;28;20029;-86
2022/05/17 11:05:38;;;;;;;4.88;1.98;;;25.20;49.90;;;;;;5039740;28;19952;-88
2022/05/17 11:08:07;;;;;;;4.18;2.22;;;25.60;49.90;;;;;;5035733;28;20025;-86
2022/05/17 11:11:01;;;;;;;2.42;2.15;;;25.80;50.40;;;;;;5028068;28;20018;-89
2022/05/17 11:13:44;;;;;;;4.47;2.25;;;26.00;50.00;;;;;;5037905;28;20038;-89
2022/05/17 11:16:28;;;;;;;4.13;2.40;;;25.80;50.50;;;;;;5037033;28;20070;-86
2022/05/17 11:19:36;;;;;;;5.90;2.50;;;25.50;51.30;;;;;;5025277;28;20029;-85
2022/05/17 11:22:34;;;;;;;5.63;2.63;;;25.30;52.20;;;;;;4954303;28;20032;-87
2022/05/17 11:25:36;;;;;;;3.90;2.10;;;25.60;51.30;;;;;;4954802;28;20066;-88
2022/05/17 11:28:21;;;;;;;5.50;2.28;;;25.80;50.80;;;;;;5006319;28;20114;-88
2022/05/17 11:31:06;;;;;;;6.55;2.33;;;26.00;49.20;;;;;;5010374;28;20028;-87
2022/05/17 11:33:39;;;;;;;3.67;1.98;;;26.00;48.50;;;;;;5024652;28;20056;-86
2022/05/17 11:36:10;;;;;;;2.20;1.95;;;26.10;50.00;;;;;;5012395;28;20026;-87
2022/05/17 11:38:35;;;;;;;6.60;2.25;;;26.60;50.10;;;;;;5012352;28;20044;-86
2022/05/17 11:41:22;;;;;;;2.55;1.60;;;27.10;48.70;;;;;;5025378;28;20018;-86
2022/05/17 11:43:55;;;;;;;5.15;2.30;;;27.30;48.10;;;;;;5024133;28;20073;-88
2022/05/17 11:46:24;;;;;;;2.97;2.05;;;27.00;48.20;;;;;;5023589;28;20052;-88
2022/05/17 11:49:06;;;;;;;1.85;1.55;;;26.10;49.20;;;;;;5006548;28;20710;-87
2022/05/17 11:51:36;;;;;;;1.60;1.50;;;25.60;50.10;;;;;;5007797;28;20565;-86
2022/05/17 11:54:42;;;;;;;6.43;2.70;;;25.60;49.20;;;;;;5024004;28;20046;-88
2022/05/17 11:57:32;;;;;;;3.20;1.77;;;25.30;50.30;;;;;;5023496;28;20022;-85
2022/05/17 12:00:04;;;;;;;4.05;2.05;;;24.90;52.10;;;;;;4971094;28;20030;-87
2022/05/17 12:02:46;;;;;;;4.00;1.80;;;24.90;52.80;;;;;;5004827;28;20037;-85
2022/05/17 12:05:33;;;;;;;3.30;1.85;;;24.90;52.90;;;;;;5021701;28;20144;-87
2022/05/17 12:08:30;;;;;;;4.60;2.50;;;25.30;52.90;;;;;;5004691;28;20078;-85
2022/05/17 12:11:11;;;;;;;5.25;2.47;;;25.80;51.60;;;;;;5005099;28;20045;-89
2022/05/17 12:13:49;;;;;;;5.37;2.43;;;26.00;51.00;;;;;;5024632;28;20033;-86
2022/05/17 12:16:19;;;;;;;4.05;2.10;;;26.00;50.60;;;;;;5024431;28;20037;-88
2022/05/17 12:19:01;;;;;;;4.60;2.33;;;26.00;50.20;;;;;;5024861;28;20034;-88
2022/05/17 12:21:50;;;;;;;4.82;2.60;;;25.90;49.40;;;;;;5023327;28;20057;-86
2022/05/17 12:24:28;;;;;;;2.70;1.73;;;25.50;50.70;;;;;;5013038;28;20045;-86
2022/05/17 12:27:20;;;;;;;5.68;2.40;;;25.20;51.80;;;;;;5026113;28;20026;-88
2022/05/17 12:32:43;;;;;;;3.05;2.25;;;24.70;52.80;;;;;;5023248;28;20140;-89
2022/05/17 12:35:12;;;;;;;3.45;2.05;;;24.30;51.10;;;;;;5006952;28;20478;-86
2022/05/17 12:37:43;;;;;;;5.47;1.95;;;24.40;51.50;;;;;;5021915;28;20033;-89
2022/05/17 12:43:03;;;;;;;3.20;2.30;;;24.80;50.90;;;;;;5020206;28;20037;-86
2022/05/17 12:45:41;;;;;;;3.88;2.42;;;24.80;50.40;;;;;;5003472;28;20116;-86
2022/05/17 12:48:28;;;;;;;3.22;2.30;;;25.10;51.70;;;;;;5020815;28;20029;-86
2022/05/17 12:50:58;;;;;;;5.45;2.20;;;25.60;51.60;;;;;;5033475;28;20025;-88
2022/05/17 12:53:28;;;;;;;2.25;1.77;;;26.10;50.70;;;;;;5024386;28;20061;-89
2022/05/17 12:56:19;;;;;;;5.45;2.42;;;26.60;49.40;;;;;;5041325;28;20529;-88
2022/05/17 12:59:01;;;;;;;3.22;1.88;;;27.00;48.00;;;;;;4990873;28;20074;-87
2022/05/17 13:01:37;;;;;;;3.65;2.13;;;27.10;48.80;;;;;;4983955;28;20057;-87
2022/05/17 13:04:15;;;;;;;4.20;1.98;;;27.20;48.30;;;;;;5033313;28;20041;-86
2022/05/17 13:06:51;;;;;;;4.30;2.00;;;27.00;48.00;;;;;;5019900;28;20049;-88
2022/05/17 13:09:17;;;;;;;2.28;1.30;;;26.90;48.20;;;;;;5006158;28;20034;-88
2022/05/17 13:11:42;;;;;;;1.63;1.52;;;26.90;47.90;;;;;;5022691;28;20094;-87
2022/05/17 13:14:14;;;;;;;4.00;1.98;;;27.20;47.50;;;;;;5023367;28;20052;-87
2022/05/17 13:16:42;;;;;;;3.85;1.73;;;27.60;45.50;;;;;;5025079;28;20036;-89
2022/05/17 13:19:13;;;;;;;4.07;1.70;;;27.40;45.80;;;;;;5025445;28;20108;-91
2022/05/17 13:21:48;;;;;;;6.55;2.60;;;27.20;46.10;;;;;;5023611;28;20022;-87